ESGT/THN METAR and TAF weather

Enter ICAO airport designator
Station Type Date Time Source
ESGT METAR 2018/12/10 17:20 UTC NOAA

ESGT 101720Z 34015KT 9999 -DZ BKN023 OVC030 03/M00 Q1002


Station Type Date Time Source
ESGT Decoded METAR 2018/12/10 17:20 UTC NOAA

Trollhattan Private , Sweden (ESGT) 58-19N 012-21E
Dec 10, 2018 - 12:20 PM EST / 2018.12.10 1720 UTC
Wind: from the NNW (340 degrees) at 17 MPH (15 KT):0
Visibility: greater than 7 mile(s):0
Sky conditions: overcast
Weather: light drizzle
Temperature: 37 F (3 C)
Dew Point: 32 F (0 C)
Relative Humidity: 80%
Pressure (altimeter): 29.59 in. Hg (1002 hPa)
ob: ESGT 101720Z 34015KT 9999 -DZ BKN023 OVC030 03/M00 Q1002
cycle: 17

Station Type Date Time Source
ESGT TAF 2016/08/12 05:58 UTC NOAA

TAF ESGT 120430Z 1205/1224 18007KT 9999 FEW030


Example: see airport list